Time;durP1;ratioP1;P1;durP2;ratioP2;P2;SDS_P1;SDS_P2;PMS_P1;PMS_P2;Temp;Humidity;BMP_temperature;BMP_pressure;BME280_temperature;BME280_humidity;BME280_pressure;Samples;Min_cycle;Max_cycle;Signal;HPM_P1;HPM_P2
2023/11/20 00:02:16;;;;;;;1.65;1.30;;;;;;;4.15;93.70;92487.88;4960854;29;20483;-79
2023/11/20 00:04:41;;;;;;;1.50;1.08;;;;;;;4.15;93.89;92480.09;4960974;29;20043;-79
2023/11/20 00:07:07;;;;;;;2.38;1.20;;;;;;;4.14;93.87;92484.50;4954472;28;20038;-80
2023/11/20 00:09:33;;;;;;;1.48;1.05;;;;;;;4.13;93.71;92482.94;4961264;29;20047;-80
2023/11/20 00:11:58;;;;;;;1.45;1.10;;;;;;;4.10;93.68;92482.66;4960727;29;20038;-79
2023/11/20 00:14:24;;;;;;;1.42;1.10;;;;;;;4.12;93.70;92491.75;4960747;29;20042;-80
2023/11/20 00:16:50;;;;;;;1.23;1.00;;;;;;;4.12;93.99;92485.75;4942849;28;20130;-79
2023/11/20 00:19:17;;;;;;;2.53;1.10;;;;;;;4.10;93.73;92487.84;4959929;29;20067;-79
2023/11/20 00:21:42;;;;;;;1.15;1.00;;;;;;;4.09;92.31;92475.91;4960246;29;20043;-78
2023/11/20 00:24:09;;;;;;;2.13;1.10;;;;;;;4.07;93.39;92481.31;4960231;29;20454;-80
2023/11/20 00:26:37;;;;;;;1.63;1.02;;;;;;;4.06;92.98;92481.59;4939136;29;20391;-77
2023/11/20 00:29:05;;;;;;;2.20;1.13;;;;;;;4.03;92.45;92471.69;4922337;29;20058;-79
2023/11/20 00:31:34;;;;;;;1.67;1.13;;;;;;;4.01;93.01;92473.75;4922697;29;20111;-80
2023/11/20 00:34:00;;;;;;;1.92;1.17;;;;;;;4.00;94.09;92477.38;4955287;29;20039;-80
2023/11/20 00:36:26;;;;;;;1.48;1.10;;;;;;;4.03;94.52;92482.06;4958382;29;20654;-78
2023/11/20 00:38:52;;;;;;;1.23;0.98;;;;;;;4.00;94.40;92480.75;4940481;29;20047;-78
2023/11/20 00:41:19;;;;;;;2.45;1.13;;;;;;;3.99;94.22;92471.41;4925339;29;20082;-78
2023/11/20 00:43:45;;;;;;;2.33;1.20;;;;;;;3.96;93.91;92466.72;4948904;29;20396;-78
2023/11/20 00:46:13;;;;;;;1.65;1.10;;;;;;;4.00;94.66;92467.78;4956882;28;20031;-78
2023/11/20 00:48:39;;;;;;;1.48;1.00;;;;;;;4.01;94.26;92473.75;4939544;29;20538;-77
2023/11/20 00:51:04;;;;;;;1.48;1.05;;;;;;;4.00;93.72;92472.97;4946953;29;20039;-77
2023/11/20 00:53:30;;;;;;;1.35;1.00;;;;;;;4.03;93.04;92461.34;4957033;29;20050;-77
2023/11/20 00:55:56;;;;;;;1.40;1.02;;;;;;;4.03;93.52;92474.28;4958246;29;20047;-78
2023/11/20 00:58:22;;;;;;;1.63;1.10;;;;;;;4.03;93.06;92482.84;4940549;29;20059;-78
2023/11/20 01:00:48;;;;;;;1.27;0.95;;;;;;;3.96;93.06;92472.69;4940767;29;20491;-79
2023/11/20 01:03:13;;;;;;;1.10;1.00;;;;;;;4.03;93.16;92472.50;4939866;29;20463;-79
2023/11/20 01:05:42;;;;;;;1.15;1.00;;;;;;;4.02;93.31;92475.31;4958476;29;20019;-79
2023/11/20 01:08:08;;;;;;;1.83;1.17;;;;;;;4.01;94.06;92476.34;4939761;29;20039;-80
2023/11/20 01:10:33;;;;;;;1.27;0.90;;;;;;;4.01;93.56;92469.38;4957695;29;20038;-79
2023/11/20 01:12:59;;;;;;;1.38;1.10;;;;;;;4.01;93.15;92463.38;4956548;29;20039;-78
2023/11/20 01:15:29;;;;;;;1.23;1.00;;;;;;;4.03;93.96;92467.31;4942070;29;20028;-80
2023/11/20 01:17:55;;;;;;;1.30;1.00;;;;;;;4.02;93.51;92454.59;4940601;29;20518;-77
2023/11/20 01:20:21;;;;;;;1.60;1.02;;;;;;;4.01;93.58;92450.44;4938617;29;20407;-80
2023/11/20 01:22:47;;;;;;;1.45;1.15;;;;;;;4.03;95.17;92456.16;4958046;29;20050;-80
2023/11/20 01:25:12;;;;;;;1.20;0.98;;;;;;;4.01;94.50;92445.25;4957164;29;20058;-77
2023/11/20 01:27:38;;;;;;;1.85;1.10;;;;;;;4.02;93.95;92450.19;4951558;28;20035;-80
2023/11/20 01:30:05;;;;;;;1.30;1.00;;;;;;;4.06;93.90;92453.09;4941237;29;20427;-80
2023/11/20 01:32:30;;;;;;;1.73;1.13;;;;;;;4.05;94.59;92443.72;4957519;29;20043;-76
2023/11/20 01:34:57;;;;;;;1.13;0.90;;;;;;;4.05;93.86;92456.69;4957030;29;20034;-77
2023/11/20 01:37:23;;;;;;;1.00;1.00;;;;;;;4.04;94.21;92458.50;4931861;29;21357;-77
2023/11/20 01:39:48;;;;;;;0.95;0.80;;;;;;;4.03;94.17;92450.97;4924416;29;20063;-78
2023/11/20 01:42:14;;;;;;;1.15;0.88;;;;;;;4.01;94.24;92459.00;4957853;29;20047;-79
2023/11/20 01:44:40;;;;;;;1.13;0.98;;;;;;;4.04;94.03;92468.88;4961259;28;20039;-80
2023/11/20 01:47:06;;;;;;;1.15;0.90;;;;;;;4.04;94.43;92452.56;4977340;28;20035;-80
2023/11/20 01:49:32;;;;;;;1.30;0.98;;;;;;;4.03;94.35;92450.97;4940693;29;20024;-80
2023/11/20 01:51:58;;;;;;;1.27;0.90;;;;;;;4.04;95.62;92450.72;4957878;29;20078;-79
2023/11/20 01:54:25;;;;;;;1.02;0.90;;;;;;;4.02;95.83;92454.59;4907865;29;20042;-79
2023/11/20 01:56:51;;;;;;;1.45;1.10;;;;;;;4.01;96.69;92453.03;4955221;28;20112;-80
2023/11/20 01:59:19;;;;;;;1.63;1.00;;;;;;;4.00;95.94;92451.47;4939774;29;20086;-79
2023/11/20 02:01:45;;;;;;;0.88;0.80;;;;;;;4.03;99.70;92450.97;4940832;29;20039;-81
2023/11/20 02:04:13;;;;;;;1.88;1.10;;;;;;;4.02;98.29;92454.59;4940971;29;20035;-81
2023/11/20 02:06:39;;;;;;;1.58;0.98;;;;;;;4.02;99.55;92445.00;4956694;28;20095;-78
2023/11/20 02:09:04;;;;;;;0.80;0.80;;;;;;;4.02;100.00;92437.25;4956075;29;20397;-80
2023/11/20 02:11:30;;;;;;;0.93;0.82;;;;;;;4.00;100.00;92436.72;4938497;29;20043;-79
2023/11/20 02:13:57;;;;;;;0.60;0.60;;;;;;;3.97;100.00;92435.41;4958155;29;20038;-79
2023/11/20 02:16:24;;;;;;;0.93;0.93;;;;;;;3.93;100.00;92426.53;4938319;29;20047;-79
2023/11/20 02:18:51;;;;;;;0.88;0.88;;;;;;;3.95;100.00;92427.09;4938342;29;20039;-78
2023/11/20 02:21:17;;;;;;;1.10;0.95;;;;;;;3.96;100.00;92431.25;4939867;28;20050;-77
2023/11/20 02:23:42;;;;;;;1.00;0.90;;;;;;;3.93;100.00;92423.97;4956009;29;20034;-79
2023/11/20 02:26:52;;;;;;;1.10;0.90;;;;;;;3.90;100.00;92416.69;4956432;29;20470;-79
2023/11/20 02:29:29;;;;;;;1.38;0.93;;;;;;;3.91;100.00;92418.25;4938076;29;20074;-80
2023/11/20 02:31:55;;;;;;;1.30;0.85;;;;;;;3.89;100.00;92420.28;4940540;29;20051;-80
2023/11/20 02:34:22;;;;;;;1.13;1.00;;;;;;;3.85;100.00;92408.88;4958497;29;20035;-80
2023/11/20 02:36:48;;;;;;;0.95;0.88;;;;;;;3.89;100.00;92404.75;4958382;29;20071;-80
2023/11/20 02:39:14;;;;;;;0.80;0.80;;;;;;;3.95;100.00;92398.59;4947932;29;20027;-80
2023/11/20 02:41:41;;;;;;;1.10;0.88;;;;;;;3.94;100.00;92407.41;4940973;29;20125;-76
2023/11/20 02:44:06;;;;;;;0.93;0.88;;;;;;;3.94;100.00;92397.03;4955627;29;20019;-79
2023/11/20 02:46:32;;;;;;;1.00;0.90;;;;;;;3.94;100.00;92402.22;4940453;29;20062;-79
2023/11/20 02:48:58;;;;;;;0.80;0.80;;;;;;;3.97;100.00;92395.78;4937951;29;20061;-79
2023/11/20 02:51:24;;;;;;;0.98;0.88;;;;;;;3.95;100.00;92392.63;4940317;29;20472;-77
2023/11/20 02:53:50;;;;;;;1.15;0.70;;;;;;;3.93;100.00;92386.91;4940859;29;20031;-79
2023/11/20 02:56:16;;;;;;;0.80;0.80;;;;;;;3.96;100.00;92392.41;4957442;29;20491;-78
2023/11/20 02:58:42;;;;;;;1.27;0.90;;;;;;;3.95;100.00;92395.22;4957383;28;20038;-79
2023/11/20 03:01:08;;;;;;;0.98;0.85;;;;;;;3.93;100.00;92395.47;4956883;29;20237;-78
2023/11/20 03:03:35;;;;;;;0.70;0.70;;;;;;;3.91;100.00;92387.16;4924470;29;20039;-79
2023/11/20 03:06:01;;;;;;;0.80;0.60;;;;;;;3.90;100.00;92380.44;4941110;29;20039;-78
2023/11/20 03:08:26;;;;;;;0.93;0.80;;;;;;;3.90;100.00;92384.84;4940516;29;20059;-78
2023/11/20 03:10:52;;;;;;;0.82;0.80;;;;;;;3.87;100.00;92380.94;4957496;29;20111;-80
2023/11/20 03:13:18;;;;;;;0.60;0.60;;;;;;;3.89;100.00;92384.03;4965241;28;20038;-79
2023/11/20 03:15:44;;;;;;;0.73;0.70;;;;;;;3.87;100.00;92386.13;4963014;28;20403;-79
2023/11/20 03:18:09;;;;;;;0.73;0.70;;;;;;;3.83;100.00;92374.69;4957033;28;20035;-80
2023/11/20 03:20:35;;;;;;;1.05;0.90;;;;;;;3.86;100.00;92381.19;4956941;29;20423;-79
2023/11/20 03:23:00;;;;;;;1.50;0.80;;;;;;;3.87;100.00;92393.09;4924199;29;20047;-79
2023/11/20 03:25:26;;;;;;;0.70;0.70;;;;;;;3.85;100.00;92384.78;4957566;29;20109;-79
2023/11/20 03:27:55;;;;;;;1.17;0.90;;;;;;;3.80;100.00;92385.53;4956896;29;20055;-80
2023/11/20 03:30:22;;;;;;;0.90;0.80;;;;;;;3.78;100.00;92369.44;4959001;28;20118;-80
2023/11/20 03:32:48;;;;;;;0.88;0.70;;;;;;;3.81;100.00;92371.56;4943673;29;20426;-79
2023/11/20 03:35:14;;;;;;;1.08;0.90;;;;;;;3.83;100.00;92363.53;4941207;29;20467;-79
2023/11/20 03:37:40;;;;;;;1.88;0.90;;;;;;;3.83;100.00;92371.28;4942146;29;20075;-79
2023/11/20 03:40:07;;;;;;;1.08;0.90;;;;;;;3.78;100.00;92372.03;4959086;29;20094;-78
2023/11/20 03:42:36;;;;;;;1.02;0.93;;;;;;;3.76;100.00;92363.75;4924376;29;20035;-79
2023/11/20 03:45:01;;;;;;;1.45;1.00;;;;;;;3.77;100.00;92365.31;4941179;29;20459;-79
2023/11/20 03:47:27;;;;;;;1.20;0.93;;;;;;;3.75;100.00;92367.38;4958668;28;20038;-80
2023/11/20 03:49:53;;;;;;;2.33;1.10;;;;;;;3.75;100.00;92368.13;4941488;29;20035;-79
2023/11/20 03:52:18;;;;;;;1.85;1.10;;;;;;;3.74;100.00;92371.00;4940496;29;20450;-79
2023/11/20 03:54:44;;;;;;;0.82;0.82;;;;;;;3.73;100.00;92359.81;4958590;29;20043;-79
2023/11/20 03:57:09;;;;;;;1.08;0.98;;;;;;;3.74;100.00;92371.75;4959171;28;20030;-78
2023/11/20 03:59:35;;;;;;;1.55;0.98;;;;;;;3.72;100.00;92380.81;4960076;29;20349;-80
2023/11/20 04:02:01;;;;;;;1.10;1.00;;;;;;;3.70;100.00;92380.28;4958841;29;20032;-79
2023/11/20 04:04:27;;;;;;;1.73;1.02;;;;;;;3.69;100.00;92382.09;4959035;29;20055;-79
2023/11/20 04:06:52;;;;;;;1.75;1.20;;;;;;;3.67;100.00;92381.53;4959019;28;20058;-79
2023/11/20 04:09:19;;;;;;;2.42;1.38;;;;;;;3.67;100.00;92388.50;4941608;29;20043;-78
2023/11/20 04:11:44;;;;;;;1.88;1.20;;;;;;;3.69;100.00;92389.03;4959029;29;20039;-79
2023/11/20 04:14:10;;;;;;;2.58;1.40;;;;;;;3.69;100.00;92394.22;4959458;29;20035;-80
2023/11/20 04:16:36;;;;;;;1.75;1.25;;;;;;;3.68;100.00;92396.03;4940849;28;20063;-79
2023/11/20 04:19:03;;;;;;;2.83;1.48;;;;;;;3.69;100.00;92389.03;4958885;29;20495;-78
2023/11/20 04:21:30;;;;;;;2.05;1.30;;;;;;;3.69;100.00;92391.63;4959144;29;20069;-79
2023/11/20 04:23:56;;;;;;;1.50;1.15;;;;;;;3.67;100.00;92386.72;4958570;29;20057;-80
2023/11/20 04:26:22;;;;;;;2.40;1.40;;;;;;;3.67;100.00;92383.34;4958264;29;20128;-78
2023/11/20 04:28:48;;;;;;;2.55;1.33;;;;;;;3.67;100.00;92381.53;4958615;28;20031;-80
2023/11/20 04:31:14;;;;;;;1.98;1.33;;;;;;;3.63;100.00;92382.28;4918990;29;1171333;-79
2023/11/20 04:33:42;;;;;;;3.15;1.35;;;;;;;3.58;100.00;92383.03;4959939;29;20038;-78
2023/11/20 04:36:11;;;;;;;2.00;1.30;;;;;;;3.54;100.00;92387.13;4959498;29;20031;-79
2023/11/20 04:38:37;;;;;;;1.80;1.15;;;;;;;3.51;100.00;92383.22;4959663;29;20047;-79
2023/11/20 04:41:05;;;;;;;2.22;1.25;;;;;;;3.49;100.00;92377.50;4958718;28;20050;-80
2023/11/20 04:43:31;;;;;;;2.25;1.25;;;;;;;3.45;100.00;92373.84;4959502;29;20039;-80
2023/11/20 04:45:57;;;;;;;2.20;1.35;;;;;;;3.49;100.00;92374.91;4959610;29;20035;-80
2023/11/20 04:48:23;;;;;;;1.73;1.20;;;;;;;3.51;100.00;92374.66;4959066;28;20047;-78
2023/11/20 04:50:48;;;;;;;2.70;1.30;;;;;;;3.50;100.00;92371.28;4942405;29;20041;-78
2023/11/20 04:53:14;;;;;;;1.67;1.10;;;;;;;3.47;100.00;92366.63;4958640;29;20049;-79
2023/11/20 04:55:39;;;;;;;1.83;1.10;;;;;;;3.47;100.00;92374.38;4959206;29;20074;-78
2023/11/20 04:58:05;;;;;;;1.80;1.20;;;;;;;3.47;100.00;92371.78;4957464;28;20040;-79
2023/11/20 05:00:32;;;;;;;1.80;1.13;;;;;;;3.48;100.00;92369.97;4958961;29;20039;-79
2023/11/20 05:02:57;;;;;;;1.88;1.23;;;;;;;3.46;100.00;92365.03;4959268;29;20027;-78
2023/11/20 05:05:23;;;;;;;1.67;1.20;;;;;;;3.46;100.00;92370.22;4955741;29;20098;-78
2023/11/20 05:07:49;;;;;;;1.45;1.10;;;;;;;3.45;100.00;92367.88;4960336;29;20094;-79
2023/11/20 05:10:15;;;;;;;1.30;1.02;;;;;;;3.45;100.00;92360.91;4958775;29;20426;-78
2023/11/20 05:12:41;;;;;;;1.30;1.10;;;;;;;3.45;100.00;92350.53;4958215;29;20074;-81
2023/11/20 05:15:08;;;;;;;1.00;0.90;;;;;;;3.47;100.00;92366.63;4927013;29;20078;-82
2023/11/20 05:17:33;;;;;;;1.90;0.93;;;;;;;3.48;100.00;92364.78;4957308;29;20044;-80
2023/11/20 05:19:59;;;;;;;2.38;1.13;;;;;;;3.47;100.00;92351.09;4956456;29;20026;-81
2023/11/20 05:22:25;;;;;;;1.60;1.17;;;;;;;3.47;100.00;92351.09;4956684;29;20039;-80
2023/11/20 05:24:51;;;;;;;1.00;0.90;;;;;;;3.48;100.00;92355.22;4957085;29;20118;-81
2023/11/20 05:27:16;;;;;;;1.30;0.93;;;;;;;3.48;100.00;92357.03;4956146;29;20042;-83
2023/11/20 05:29:43;;;;;;;0.73;0.70;;;;;;;3.48;100.00;92355.22;4939109;29;20407;-81
2023/11/20 05:32:08;;;;;;;1.10;0.93;;;;;;;3.48;100.00;92357.81;4955634;29;20102;-81
2023/11/20 05:34:34;;;;;;;1.48;0.90;;;;;;;3.48;100.00;92363.00;4956303;29;20043;-82
2023/11/20 05:37:00;;;;;;;1.33;0.90;;;;;;;3.49;100.00;92364.56;4956500;29;20090;-82
2023/11/20 05:39:26;;;;;;;2.30;1.23;;;;;;;3.50;100.00;92360.16;4955869;29;20031;-79
2023/11/20 05:41:54;;;;;;;0.80;0.80;;;;;;;3.48;100.00;92365.56;4940161;29;20047;-80
2023/11/20 05:44:20;;;;;;;2.63;1.20;;;;;;;3.49;100.00;92372.31;4946753;29;20098;-78
2023/11/20 05:46:45;;;;;;;1.63;1.00;;;;;;;3.48;100.00;92357.81;4955399;28;20039;-79
2023/11/20 05:49:11;;;;;;;1.17;0.88;;;;;;;3.48;100.00;92359.63;4955313;29;20039;-79
2023/11/20 05:51:37;;;;;;;0.93;0.85;;;;;;;3.50;100.00;92358.34;4956141;29;20058;-84
2023/11/20 05:54:03;;;;;;;1.02;0.90;;;;;;;3.49;100.00;92351.63;4955882;28;20080;-79
2023/11/20 05:56:32;;;;;;;1.48;1.00;;;;;;;3.47;100.00;92351.09;4955661;29;20491;-78
2023/11/20 05:58:58;;;;;;;1.27;1.00;;;;;;;3.45;100.00;92349.78;4938160;29;20027;-80
2023/11/20 06:01:23;;;;;;;0.85;0.80;;;;;;;3.48;100.00;92350.03;4956182;29;20039;-79
2023/11/20 06:03:49;;;;;;;0.85;0.80;;;;;;;3.49;100.00;92353.41;4936377;29;20043;-80
2023/11/20 06:06:20;;;;;;;1.05;0.80;;;;;;;3.48;100.00;92357.81;4936721;29;20027;-80
2023/11/20 06:08:48;;;;;;;0.88;0.77;;;;;;;3.46;100.00;92354.69;4936781;29;20487;-79
2023/11/20 06:11:22;;;;;;;1.00;0.82;;;;;;;3.51;100.00;92357.34;4937097;29;20043;-79
2023/11/20 06:13:48;;;;;;;0.70;0.70;;;;;;;3.48;100.00;92344.09;4936971;29;20047;-80
2023/11/20 06:16:15;;;;;;;1.25;0.90;;;;;;;3.59;100.00;92357.91;4936785;29;20031;-79
2023/11/20 06:18:40;;;;;;;1.10;0.80;;;;;;;3.59;100.00;92357.91;4946399;29;20067;-81
2023/11/20 06:21:06;;;;;;;0.70;0.70;;;;;;;3.60;100.00;92355.06;4955671;29;20043;-81
2023/11/20 06:23:31;;;;;;;0.95;0.90;;;;;;;3.60;100.00;92356.88;4955784;29;20499;-79
2023/11/20 06:25:57;;;;;;;0.82;0.80;;;;;;;3.62;100.00;92358.19;4956435;29;20043;-80
2023/11/20 06:28:23;;;;;;;0.90;0.90;;;;;;;3.61;100.00;92356.63;4955147;28;20039;-80
2023/11/20 06:30:51;;;;;;;1.48;1.00;;;;;;;3.64;100.00;92355.34;4955321;29;20051;-80
2023/11/20 06:33:17;;;;;;;0.90;0.90;;;;;;;3.65;100.00;92356.94;4954871;29;20136;-78
2023/11/20 06:35:43;;;;;;;1.27;0.90;;;;;;;3.68;100.00;92353.84;4955106;29;20046;-79
2023/11/20 06:38:09;;;;;;;1.13;1.00;;;;;;;3.69;100.00;92348.44;4953566;28;20035;-78
2023/11/20 06:40:36;;;;;;;1.58;1.00;;;;;;;3.72;100.00;92347.16;4953484;29;20094;-77
2023/11/20 06:43:04;;;;;;;1.27;0.95;;;;;;;3.75;100.00;92344.84;4953433;29;20507;-77
2023/11/20 06:45:30;;;;;;;0.95;0.80;;;;;;;3.80;100.00;92354.44;4936918;29;20031;-78
2023/11/20 06:47:56;;;;;;;0.60;0.60;;;;;;;3.87;100.00;92347.28;4953387;28;20039;-78
2023/11/20 06:50:24;;;;;;;1.17;0.80;;;;;;;3.96;100.00;92348.38;4954130;29;20054;-79
2023/11/20 06:52:56;;;;;;;1.20;0.82;;;;;;;4.46;100.00;92361.09;4953264;29;20027;-77
2023/11/20 06:55:25;;;;;;;1.00;0.90;;;;;;;5.24;100.00;92357.78;4953009;29;20047;-78
2023/11/20 06:57:50;;;;;;;0.88;0.80;;;;;;;5.61;100.00;92355.78;4953252;29;20044;-78
2023/11/20 07:00:18;;;;;;;1.30;1.02;;;;;;;6.03;100.00;92353.97;4953269;29;20066;-78
2023/11/20 07:02:44;;;;;;;1.00;0.90;;;;;;;6.25;100.00;92358.91;4953176;29;20035;-78
2023/11/20 07:05:17;;;;;;;0.88;0.88;;;;;;;6.36;98.85;92350.06;4954870;28;20521;-78
2023/11/20 07:07:51;;;;;;;1.10;0.82;;;;;;;6.52;97.46;92350.03;4957688;29;20114;-77
2023/11/20 07:10:25;;;;;;;0.98;0.85;;;;;;;6.44;96.73;92365.13;4957890;29;20555;-78
2023/11/20 07:12:54;;;;;;;1.23;0.80;;;;;;;6.26;97.09;92365.69;4957949;29;20051;-78
2023/11/20 07:15:24;;;;;;;0.95;0.90;;;;;;;6.19;98.07;92367.75;4958346;29;20023;-78
2023/11/20 07:17:50;;;;;;;0.80;0.80;;;;;;;6.20;98.28;92361.53;4957944;29;20039;-78
2023/11/20 07:20:17;;;;;;;1.38;1.00;;;;;;;6.49;96.43;92363.56;4957818;29;20162;-78
2023/11/20 07:22:44;;;;;;;2.00;1.00;;;;;;;6.85;96.03;92365.03;4957446;29;20035;-78
2023/11/20 07:25:11;;;;;;;1.30;0.90;;;;;;;7.60;90.15;92366.75;4958197;29;20039;-78
2023/11/20 07:27:37;;;;;;;1.35;1.08;;;;;;;8.20;84.43;92368.41;4957593;29;20031;-78
2023/11/20 07:30:06;;;;;;;1.05;0.93;;;;;;;7.96;83.22;92374.31;4955155;29;20531;-77
2023/11/20 07:32:35;;;;;;;1.02;0.90;;;;;;;7.74;84.12;92360.94;4957731;29;20415;-78
2023/11/20 07:35:04;;;;;;;0.82;0.70;;;;;;;7.59;85.63;92357.38;4958182;29;20483;-78
2023/11/20 07:37:33;;;;;;;1.45;0.95;;;;;;;7.51;86.21;92358.72;4940530;29;20507;-79
2023/11/20 07:40:07;;;;;;;0.82;0.80;;;;;;;8.35;85.33;92355.22;4940059;29;20506;-79
2023/11/20 07:42:33;;;;;;;4.53;1.20;;;;;;;10.30;75.61;92353.59;4957746;29;20101;-79
2023/11/20 07:44:59;;;;;;;1.63;1.17;;;;;;;11.63;65.69;92358.94;4957903;29;20450;-79
2023/11/20 07:47:24;;;;;;;1.27;1.10;;;;;;;12.95;60.85;92348.25;4958367;28;20042;-79
2023/11/20 07:49:51;;;;;;;2.95;0.93;;;;;;;14.15;54.57;92350.63;4957995;29;20039;-79
2023/11/20 07:52:16;;;;;;;1.10;1.00;;;;;;;15.49;50.51;92358.31;4958165;29;20392;-79
2023/11/20 07:54:43;;;;;;;1.02;0.93;;;;;;;16.61;44.47;92358.53;4957171;29;20035;-80
2023/11/20 07:57:11;;;;;;;1.70;1.00;;;;;;;17.59;41.41;92360.56;4939695;29;20407;-80
2023/11/20 07:59:37;;;;;;;0.95;0.80;;;;;;;17.52;39.46;92357.72;4956681;29;20039;-79
2023/11/20 08:02:03;;;;;;;1.00;0.90;;;;;;;17.60;38.07;92346.22;4957189;29;20054;-80
2023/11/20 08:04:28;;;;;;;0.85;0.80;;;;;;;17.78;36.69;92349.38;4957097;29;20046;-79
2023/11/20 08:06:54;;;;;;;0.93;0.80;;;;;;;18.07;36.94;92352.91;4957442;29;20039;-80
2023/11/20 08:09:20;;;;;;;1.60;1.02;;;;;;;18.86;35.13;92337.22;4956976;29;20263;-78
2023/11/20 08:11:45;;;;;;;1.83;0.75;;;;;;;17.64;35.61;92341.81;4939811;29;20043;-80
2023/11/20 08:14:14;;;;;;;1.33;1.05;;;;;;;17.87;35.53;92354.59;4956848;29;20027;-81
2023/11/20 08:16:40;;;;;;;1.02;0.93;;;;;;;18.06;33.88;92349.47;4956074;28;20496;-80
2023/11/20 08:19:05;;;;;;;1.00;0.90;;;;;;;18.34;34.73;92342.66;4956985;29;20043;-80
2023/11/20 08:21:31;;;;;;;1.00;0.90;;;;;;;19.03;32.34;92353.94;4939597;29;20396;-80
2023/11/20 08:23:57;;;;;;;1.17;1.02;;;;;;;20.11;32.29;92357.94;4956972;29;20023;-80
2023/11/20 08:26:23;;;;;;;1.67;1.15;;;;;;;20.77;30.77;92360.75;4940591;29;20051;-80
2023/11/20 08:28:50;;;;;;;1.30;0.90;;;;;;;19.24;31.95;92345.72;4956684;28;20089;-80
2023/11/20 08:31:16;;;;;;;1.38;0.90;;;;;;;20.05;32.28;92337.31;4939865;29;20054;-79
2023/11/20 08:33:41;;;;;;;1.50;1.08;;;;;;;20.11;31.83;92347.31;4956799;29;20046;-80
2023/11/20 08:36:08;;;;;;;1.20;0.98;;;;;;;19.38;33.15;92337.31;4957260;29;20116;-79
2023/11/20 08:38:34;;;;;;;1.45;1.10;;;;;;;18.34;34.94;92340.00;4956383;28;20438;-80
2023/11/20 08:41:00;;;;;;;3.25;1.13;;;;;;;17.24;37.56;92339.06;4956382;29;20126;-78
2023/11/20 08:43:27;;;;;;;3.28;1.10;;;;;;;16.99;37.79;92338.28;4957199;29;20495;-78
2023/11/20 08:45:53;;;;;;;1.13;0.90;;;;;;;16.39;37.87;92328.00;4956912;29;20494;-79
2023/11/20 08:48:19;;;;;;;1.27;0.90;;;;;;;16.35;35.49;92329.75;4956401;29;20031;-79
2023/11/20 08:50:45;;;;;;;1.90;1.00;;;;;;;15.31;40.01;92338.38;4954185;29;21421;-79
2023/11/20 08:53:11;;;;;;;3.47;1.30;;;;;;;15.08;42.46;92340.50;4936752;29;20035;-79
2023/11/20 08:55:36;;;;;;;1.50;1.00;;;;;;;15.32;39.31;92339.94;4937301;29;20032;-79
2023/11/20 08:58:05;;;;;;;3.30;1.20;;;;;;;15.39;40.07;92334.91;4937137;29;20044;-78
2023/11/20 09:00:31;;;;;;;1.30;1.00;;;;;;;15.12;40.44;92336.16;4936992;29;20047;-78
2023/11/20 09:02:57;;;;;;;1.58;1.10;;;;;;;14.58;42.63;92334.78;4941062;29;20126;-80
2023/11/20 09:05:22;;;;;;;2.03;1.10;;;;;;;14.57;43.75;92343.00;4956234;29;20050;-80
2023/11/20 09:07:48;;;;;;;1.77;1.10;;;;;;;14.56;44.05;92352.75;4956321;28;20036;-80
2023/11/20 09:10:14;;;;;;;1.30;1.00;;;;;;;14.57;44.12;92340.38;4956710;29;20031;-78
2023/11/20 09:12:41;;;;;;;2.60;1.40;;;;;;;14.43;46.20;92331.84;4956890;29;20053;-79
2023/11/20 09:15:10;;;;;;;4.00;1.42;;;;;;;14.80;44.30;92335.66;4956564;29;20122;-80
2023/11/20 09:17:37;;;;;;;2.03;1.35;;;;;;;14.41;47.90;92323.47;4956768;29;20074;-77
2023/11/20 09:20:03;;;;;;;1.98;1.20;;;;;;;13.91;48.49;92330.78;4957107;29;20440;-78
2023/11/20 09:22:29;;;;;;;3.50;1.50;;;;;;;13.93;48.90;92328.63;4957420;29;20499;-79
2023/11/20 09:24:56;;;;;;;1.92;1.30;;;;;;;13.91;48.11;92325.53;4956517;29;20039;-79
2023/11/20 09:27:22;;;;;;;2.95;1.50;;;;;;;13.95;46.81;92323.06;4956065;28;20665;-79
2023/11/20 09:29:48;;;;;;;2.30;1.45;;;;;;;13.73;47.92;92335.31;4955883;29;20175;-79
2023/11/20 09:32:14;;;;;;;2.15;1.30;;;;;;;14.11;46.99;92331.25;4955740;29;20085;-79
2023/11/20 09:34:39;;;;;;;2.72;1.30;;;;;;;13.85;48.52;92324.16;4953407;29;20047;-77
2023/11/20 09:37:05;;;;;;;2.97;1.50;;;;;;;13.57;51.39;92322.91;4936485;29;20040;-79
2023/11/20 09:39:31;;;;;;;2.10;1.30;;;;;;;12.17;55.22;92329.47;4936361;29;20375;-79
2023/11/20 09:41:57;;;;;;;2.33;1.40;;;;;;;12.29;56.09;92340.97;4936685;29;20043;-79
2023/11/20 09:44:27;;;;;;;2.10;1.40;;;;;;;12.29;59.60;92319.97;4936114;29;20138;-79
2023/11/20 09:46:54;;;;;;;2.90;1.50;;;;;;;12.49;56.06;92326.53;4937080;29;20036;-80
2023/11/20 09:49:28;;;;;;;2.55;1.50;;;;;;;12.77;54.39;92325.63;4936360;29;20038;-79
2023/11/20 09:51:56;;;;;;;2.35;1.40;;;;;;;12.86;56.06;92329.03;4936130;29;20186;-79
2023/11/20 09:54:24;;;;;;;2.67;1.48;;;;;;;12.94;56.46;92328.28;4935329;29;20050;-77
2023/11/20 09:56:50;;;;;;;2.20;1.40;;;;;;;12.46;58.00;92318.50;4935715;29;20027;-80
2023/11/20 09:59:16;;;;;;;2.40;1.50;;;;;;;12.73;56.36;92319.41;4949725;29;20101;-79
2023/11/20 10:01:44;;;;;;;2.45;1.48;;;;;;;12.63;57.88;92323.84;4954966;29;20039;-79
2023/11/20 10:04:15;;;;;;;2.58;1.50;;;;;;;13.05;57.39;92326.16;4955235;29;20047;-79
2023/11/20 10:06:43;;;;;;;2.33;1.55;;;;;;;13.41;53.20;92310.19;4955261;29;20495;-80
2023/11/20 10:09:09;;;;;;;2.80;1.52;;;;;;;13.07;54.96;92306.38;4937506;29;20089;-79
2023/11/20 10:11:37;;;;;;;2.42;1.40;;;;;;;13.26;54.13;92305.34;4955446;29;20043;-79
2023/11/20 10:14:03;;;;;;;2.38;1.48;;;;;;;13.14;53.25;92305.94;4955594;29;20035;-80
2023/11/20 10:16:35;;;;;;;2.47;1.58;;;;;;;12.41;57.85;92295.78;4954950;29;20107;-80
2023/11/20 10:19:04;;;;;;;2.42;1.52;;;;;;;12.29;59.54;92287.69;4954406;29;20509;-79
2023/11/20 10:21:31;;;;;;;2.40;1.35;;;;;;;12.53;59.36;92271.59;4954903;29;20047;-78
2023/11/20 10:23:59;;;;;;;2.28;1.48;;;;;;;12.70;60.12;92278.78;4954769;29;20039;-78
2023/11/20 10:26:25;;;;;;;2.10;1.40;;;;;;;12.55;59.49;92277.31;4954878;29;20062;-79
2023/11/20 10:28:54;;;;;;;2.80;1.58;;;;;;;12.70;61.14;92270.91;4954841;29;20043;-78
2023/11/20 10:31:22;;;;;;;2.85;1.60;;;;;;;12.50;59.91;92269.59;4954812;29;20087;-78
2023/11/20 10:34:01;;;;;;;2.58;1.60;;;;;;;12.38;62.13;92259.63;4954487;29;20447;-78
2023/11/20 10:36:27;;;;;;;2.80;1.70;;;;;;;12.66;62.55;92256.81;4954693;29;20035;-78
2023/11/20 10:38:55;;;;;;;3.10;1.70;;;;;;;12.53;61.29;92258.47;4936162;29;20446;-78
2023/11/20 10:41:20;;;;;;;2.25;1.48;;;;;;;12.41;62.13;92255.66;4953393;29;20434;-80
2023/11/20 10:43:46;;;;;;;2.50;1.52;;;;;;;12.24;62.50;92257.09;4937425;29;20043;-79
2023/11/20 10:46:14;;;;;;;3.47;1.50;;;;;;;11.80;64.04;92248.19;4954895;29;20042;-78
2023/11/20 10:48:39;;;;;;;3.65;1.77;;;;;;;11.43;64.47;92242.19;4955230;29;20027;-78
2023/11/20 10:51:11;;;;;;;3.00;1.50;;;;;;;11.21;68.49;92244.78;4955486;29;20067;-79
2023/11/20 10:53:42;;;;;;;2.72;1.55;;;;;;;11.20;67.68;92238.78;4956489;29;20496;-78
2023/11/20 10:56:10;;;;;;;2.88;1.60;;;;;;;11.32;65.74;92240.09;4957397;29;20035;-78
2023/11/20 10:58:38;;;;;;;3.65;1.58;;;;;;;11.34;68.54;92236.13;4941555;29;20023;-78
2023/11/20 11:01:05;;;;;;;2.65;1.60;;;;;;;11.34;69.60;92243.22;4943599;29;20046;-78
2023/11/20 11:03:32;;;;;;;4.55;1.60;;;;;;;11.10;70.24;92253.94;4959361;29;20050;-78
2023/11/20 11:06:09;;;;;;;2.50;1.50;;;;;;;11.00;71.11;92245.22;4958999;29;20078;-79
2023/11/20 11:08:37;;;;;;;2.10;1.25;;;;;;;11.13;62.96;92237.66;4925763;29;20372;-77
2023/11/20 11:11:03;;;;;;;2.35;1.48;;;;;;;11.37;60.52;92232.94;4942755;29;20522;-79
2023/11/20 11:13:35;;;;;;;3.53;1.60;;;;;;;11.75;61.11;92232.56;4941109;29;20043;-80
2023/11/20 11:16:06;;;;;;;2.47;1.50;;;;;;;12.08;58.92;92225.22;4959780;29;20496;-79
2023/11/20 11:18:35;;;;;;;2.70;1.48;;;;;;;12.29;58.12;92220.25;4961041;29;20062;-79
2023/11/20 11:21:04;;;;;;;3.03;1.60;;;;;;;12.48;62.18;92216.59;4959415;29;20038;-78
2023/11/20 11:23:46;;;;;;;2.25;1.38;;;;;;;11.84;64.78;92222.91;4958938;29;20019;-80
2023/11/20 11:26:21;;;;;;;;;;;;;;;11.53;63.43;92220.25;4961604;29;20117;-78
2023/11/20 11:29:00;;;;;;;2.83;1.45;;;;;;;11.50;64.37;92217.44;4961169;29;19925;-79
2023/11/20 11:31:57;;;;;;;3.47;1.40;;;;;;;11.05;66.39;92215.53;4962032;29;20490;-78
2023/11/20 11:34:50;;;;;;;3.10;1.38;;;;;;;10.93;71.18;92205.56;4927317;29;20032;-79
2023/11/20 11:37:35;;;;;;;2.90;1.60;;;;;;;10.81;76.80;92200.84;4944770;29;20027;-78